sensor_id;sensor_type;location;lat;lon;timestamp;pressure;altitude;pressure_sealevel;temperature;humidity
13604;BME280;24578;48.264;11.436;2023-08-08T00:05:42;96371.44;;;11.19;100.00
13604;BME280;24578;48.264;11.436;2023-08-08T00:12:04;96366.63;;;11.26;100.00
13604;BME280;24578;48.264;11.436;2023-08-08T00:18:25;96361.09;;;11.31;100.00
13604;BME280;24578;48.264;11.436;2023-08-08T00:24:46;96355.53;;;11.24;100.00
13604;BME280;24578;48.264;11.436;2023-08-08T00:31:07;96356.25;;;11.26;100.00
13604;BME280;24578;48.264;11.436;2023-08-08T00:37:28;96353.78;;;11.24;100.00
13604;BME280;24578;48.264;11.436;2023-08-08T00:43:50;96352.56;;;11.17;100.00
13604;BME280;24578;48.264;11.436;2023-08-08T00:50:12;96359.78;;;11.25;100.00
13604;BME280;24578;48.264;11.436;2023-08-08T00:56:35;96358.22;;;11.11;100.00
13604;BME280;24578;48.264;11.436;2023-08-08T01:02:57;96358.53;;;11.06;100.00
13604;BME280;24578;48.264;11.436;2023-08-08T01:09:33;96351.47;;;11.08;100.00
13604;BME280;24578;48.264;11.436;2023-08-08T01:15:57;96347.09;;;10.98;100.00
13604;BME280;24578;48.264;11.436;2023-08-08T01:22:29;96344.00;;;10.92;100.00
13604;BME280;24578;48.264;11.436;2023-08-08T01:28:53;96337.00;;;10.81;100.00
13604;BME280;24578;48.264;11.436;2023-08-08T01:35:17;96332.91;;;10.66;100.00
13604;BME280;24578;48.264;11.436;2023-08-08T01:41:39;96321.19;;;10.49;100.00
13604;BME280;24578;48.264;11.436;2023-08-08T01:48:06;96328.81;;;10.38;100.00
13604;BME280;24578;48.264;11.436;2023-08-08T01:54:27;96322.84;;;10.24;100.00
13604;BME280;24578;48.264;11.436;2023-08-08T02:00:48;96321.94;;;10.12;100.00
13604;BME280;24578;48.264;11.436;2023-08-08T02:07:10;96313.88;;;10.04;100.00
13604;BME280;24578;48.264;11.436;2023-08-08T02:13:31;96309.66;;;9.90;100.00
13604;BME280;24578;48.264;11.436;2023-08-08T02:19:52;96313.06;;;9.78;100.00
13604;BME280;24578;48.264;11.436;2023-08-08T02:26:14;96326.09;;;9.63;100.00
13604;BME280;24578;48.264;11.436;2023-08-08T02:39:45;96311.59;;;9.35;100.00
13604;BME280;24578;48.264;11.436;2023-08-08T02:46:06;96308.81;;;9.25;100.00
13604;BME280;24578;48.264;11.436;2023-08-08T02:52:27;96316.03;;;9.20;100.00
13604;BME280;24578;48.264;11.436;2023-08-08T02:58:49;96317.56;;;9.22;100.00
13604;BME280;24578;48.264;11.436;2023-08-08T03:05:10;96321.53;;;9.41;100.00
13604;BME280;24578;48.264;11.436;2023-08-08T03:11:31;96322.91;;;9.59;100.00
13604;BME280;24578;48.264;11.436;2023-08-08T03:17:52;96319.81;;;9.67;100.00
13604;BME280;24578;48.264;11.436;2023-08-08T03:24:13;96312.56;;;9.72;100.00
13604;BME280;24578;48.264;11.436;2023-08-08T03:30:38;96306.03;;;9.80;100.00
13604;BME280;24578;48.264;11.436;2023-08-08T03:37:00;96315.47;;;9.81;100.00
13604;BME280;24578;48.264;11.436;2023-08-08T03:43:21;96316.59;;;9.89;100.00
13604;BME280;24578;48.264;11.436;2023-08-08T03:49:42;96305.00;;;9.95;100.00
13604;BME280;24578;48.264;11.436;2023-08-08T03:56:03;96303.75;;;10.01;100.00
13604;BME280;24578;48.264;11.436;2023-08-08T04:02:25;96306.66;;;10.09;100.00
13604;BME280;24578;48.264;11.436;2023-08-08T04:08:46;96301.88;;;10.16;100.00
13604;BME280;24578;48.264;11.436;2023-08-08T04:15:08;96307.84;;;10.29;100.00
13604;BME280;24578;48.264;11.436;2023-08-08T04:21:29;96306.28;;;10.40;100.00
13604;BME280;24578;48.264;11.436;2023-08-08T04:27:53;96309.88;;;10.50;100.00
13604;BME280;24578;48.264;11.436;2023-08-08T04:34:14;96319.03;;;10.67;100.00
13604;BME280;24578;48.264;11.436;2023-08-08T04:40:35;96318.66;;;10.85;100.00
13604;BME280;24578;48.264;11.436;2023-08-08T04:46:57;96313.53;;;10.96;100.00
13604;BME280;24578;48.264;11.436;2023-08-08T04:53:18;96314.91;;;11.13;100.00
13604;BME280;24578;48.264;11.436;2023-08-08T04:59:39;96306.72;;;11.42;100.00
13604;BME280;24578;48.264;11.436;2023-08-08T05:06:01;96310.16;;;11.54;100.00
13604;BME280;24578;48.264;11.436;2023-08-08T05:12:22;96308.19;;;11.69;100.00
13604;BME280;24578;48.264;11.436;2023-08-08T05:18:43;96302.66;;;11.96;100.00
13604;BME280;24578;48.264;11.436;2023-08-08T05:25:08;96299.47;;;12.27;100.00
13604;BME280;24578;48.264;11.436;2023-08-08T05:31:29;96310.78;;;12.48;100.00
13604;BME280;24578;48.264;11.436;2023-08-08T05:37:50;96308.16;;;13.04;100.00
13604;BME280;24578;48.264;11.436;2023-08-08T05:44:11;96309.50;;;13.83;100.00
13604;BME280;24578;48.264;11.436;2023-08-08T05:50:32;96298.88;;;16.32;100.00
13604;BME280;24578;48.264;11.436;2023-08-08T05:56:54;96293.66;;;20.11;65.59
13604;BME280;24578;48.264;11.436;2023-08-08T06:03:15;96290.63;;;22.39;48.61
13604;BME280;24578;48.264;11.436;2023-08-08T06:09:36;96282.47;;;24.14;43.36
13604;BME280;24578;48.264;11.436;2023-08-08T06:15:58;96283.97;;;24.92;40.64
13604;BME280;24578;48.264;11.436;2023-08-08T06:22:19;96279.53;;;25.06;39.49
13604;BME280;24578;48.264;11.436;2023-08-08T06:28:41;96281.94;;;23.62;41.44
13604;BME280;24578;48.264;11.436;2023-08-08T06:35:02;96270.16;;;23.64;43.29
13604;BME280;24578;48.264;11.436;2023-08-08T06:41:23;96261.66;;;24.46;41.98
13604;BME280;24578;48.264;11.436;2023-08-08T06:47:45;96271.19;;;25.36;38.90
13604;BME280;24578;48.264;11.436;2023-08-08T06:54:06;96270.19;;;25.37;38.43
13604;BME280;24578;48.264;11.436;2023-08-08T07:00:28;96273.44;;;24.99;38.86
13604;BME280;24578;48.264;11.436;2023-08-08T07:06:50;96250.47;;;27.35;35.77
13604;BME280;24578;48.264;11.436;2023-08-08T07:13:11;96261.47;;;26.74;35.00
13604;BME280;24578;48.264;11.436;2023-08-08T07:19:33;96267.16;;;25.47;37.72
13604;BME280;24578;48.264;11.436;2023-08-08T07:25:54;96257.25;;;26.08;37.34
13604;BME280;24578;48.264;11.436;2023-08-08T07:32:15;96243.44;;;28.29;33.24
13604;BME280;24578;48.264;11.436;2023-08-08T07:38:36;96245.75;;;29.28;31.96
13604;BME280;24578;48.264;11.436;2023-08-08T07:44:59;96227.69;;;30.55;30.10
13604;BME280;24578;48.264;11.436;2023-08-08T07:51:20;96226.91;;;31.17;29.71
13604;BME280;24578;48.264;11.436;2023-08-08T07:57:41;96225.50;;;31.14;28.63
13604;BME280;24578;48.264;11.436;2023-08-08T08:04:03;96219.69;;;31.35;27.94
13604;BME280;24578;48.264;11.436;2023-08-08T08:10:24;96222.75;;;31.61;28.68
13604;BME280;24578;48.264;11.436;2023-08-08T08:16:45;96210.22;;;31.27;27.92
13604;BME280;24578;48.264;11.436;2023-08-08T08:23:06;96209.44;;;31.66;28.27
13604;BME280;24578;48.264;11.436;2023-08-08T08:29:28;96209.13;;;31.79;26.11
13604;BME280;24578;48.264;11.436;2023-08-08T08:35:49;96205.38;;;30.20;27.78
13604;BME280;24578;48.264;11.436;2023-08-08T08:42:13;96192.94;;;29.61;29.30
13604;BME280;24578;48.264;11.436;2023-08-08T08:48:35;96185.88;;;30.77;28.08
13604;BME280;24578;48.264;11.436;2023-08-08T08:54:56;96179.91;;;30.29;28.80
13604;BME280;24578;48.264;11.436;2023-08-08T09:01:18;96180.59;;;30.65;28.99
13604;BME280;24578;48.264;11.436;2023-08-08T09:07:40;96185.28;;;29.76;29.48
13604;BME280;24578;48.264;11.436;2023-08-08T09:14:02;96180.72;;;29.89;29.60
13604;BME280;24578;48.264;11.436;2023-08-08T09:20:25;96176.25;;;30.59;29.32
13604;BME280;24578;48.264;11.436;2023-08-08T09:26:48;96182.84;;;31.03;27.74
13604;BME280;24578;48.264;11.436;2023-08-08T09:33:11;96180.09;;;30.51;27.10
13604;BME280;24578;48.264;11.436;2023-08-08T09:39:32;96171.81;;;29.95;29.09
13604;BME280;24578;48.264;11.436;2023-08-08T09:45:53;96161.06;;;30.94;28.72
13604;BME280;24578;48.264;11.436;2023-08-08T09:52:15;96161.50;;;31.08;27.77
13604;BME280;24578;48.264;11.436;2023-08-08T09:58:37;96153.88;;;29.55;28.78
13604;BME280;24578;48.264;11.436;2023-08-08T10:04:59;96164.66;;;29.12;29.37
13604;BME280;24578;48.264;11.436;2023-08-08T10:11:22;96158.13;;;27.93;29.62
13604;BME280;24578;48.264;11.436;2023-08-08T10:17:44;96163.81;;;28.88;28.69
13604;BME280;24578;48.264;11.436;2023-08-08T10:24:07;96153.66;;;28.54;28.34
13604;BME280;24578;48.264;11.436;2023-08-08T10:30:29;96154.56;;;29.02;28.67
13604;BME280;24578;48.264;11.436;2023-08-08T10:36:51;96156.66;;;29.12;28.90
13604;BME280;24578;48.264;11.436;2023-08-08T10:43:25;96155.72;;;28.95;29.22
13604;BME280;24578;48.264;11.436;2023-08-08T10:49:56;96144.72;;;29.27;28.70
13604;BME280;24578;48.264;11.436;2023-08-08T10:56:18;96145.69;;;28.66;27.27
13604;BME280;24578;48.264;11.436;2023-08-08T11:03:09;96138.53;;;27.87;29.78
13604;BME280;24578;48.264;11.436;2023-08-08T11:09:30;96139.06;;;27.96;30.62
13604;BME280;24578;48.264;11.436;2023-08-08T11:15:52;96131.06;;;27.96;29.29
13604;BME280;24578;48.264;11.436;2023-08-08T11:22:13;96131.66;;;27.42;30.60
13604;BME280;24578;48.264;11.436;2023-08-08T11:28:38;96128.69;;;26.88;29.27
13604;BME280;24578;48.264;11.436;2023-08-08T11:34:59;96119.47;;;27.16;30.22
13604;BME280;24578;48.264;11.436;2023-08-08T11:41:24;96107.75;;;28.71;28.91
13604;BME280;24578;48.264;11.436;2023-08-08T11:47:51;96102.00;;;29.86;26.38
13604;BME280;24578;48.264;11.436;2023-08-08T11:54:13;96097.56;;;29.92;27.03
13604;BME280;24578;48.264;11.436;2023-08-08T12:00:35;96081.69;;;30.26;26.41
13604;BME280;24578;48.264;11.436;2023-08-08T12:07:03;96086.63;;;30.05;25.68
13604;BME280;24578;48.264;11.436;2023-08-08T12:13:25;96091.66;;;29.49;26.68
13604;BME280;24578;48.264;11.436;2023-08-08T12:19:49;96088.69;;;28.98;28.42
13604;BME280;24578;48.264;11.436;2023-08-08T12:26:11;96089.84;;;29.38;26.13
13604;BME280;24578;48.264;11.436;2023-08-08T12:32:32;96089.81;;;28.78;27.96
13604;BME280;24578;48.264;11.436;2023-08-08T12:38:54;96091.44;;;28.25;28.69
13604;BME280;24578;48.264;11.436;2023-08-08T12:45:15;96085.66;;;29.30;26.80
13604;BME280;24578;48.264;11.436;2023-08-08T12:51:36;96075.28;;;29.98;27.04
13604;BME280;24578;48.264;11.436;2023-08-08T12:57:58;96072.13;;;29.08;26.82
13604;BME280;24578;48.264;11.436;2023-08-08T13:04:19;96075.88;;;28.52;28.15
13604;BME280;24578;48.264;11.436;2023-08-08T13:10:40;96075.31;;;28.62;28.34
13604;BME280;24578;48.264;11.436;2023-08-08T13:17:02;96080.47;;;28.33;27.78
13604;BME280;24578;48.264;11.436;2023-08-08T13:23:23;96079.34;;;28.41;28.68
13604;BME280;24578;48.264;11.436;2023-08-08T13:29:44;96074.41;;;27.95;27.42
13604;BME280;24578;48.264;11.436;2023-08-08T13:36:06;96064.53;;;29.28;26.80
13604;BME280;24578;48.264;11.436;2023-08-08T13:42:27;96046.88;;;28.86;27.90
13604;BME280;24578;48.264;11.436;2023-08-08T13:48:48;96069.56;;;26.99;29.95
13604;BME280;24578;48.264;11.436;2023-08-08T13:55:09;96058.13;;;28.34;29.17
13604;BME280;24578;48.264;11.436;2023-08-08T14:01:31;96053.31;;;28.67;27.70
13604;BME280;24578;48.264;11.436;2023-08-08T14:07:52;96048.63;;;27.65;29.94
13604;BME280;24578;48.264;11.436;2023-08-08T14:14:13;96038.81;;;27.66;28.95
13604;BME280;24578;48.264;11.436;2023-08-08T14:20:34;96042.63;;;26.96;29.81
13604;BME280;24578;48.264;11.436;2023-08-08T14:26:55;96032.97;;;26.83;31.21
13604;BME280;24578;48.264;11.436;2023-08-08T14:33:17;96034.75;;;28.24;29.37
13604;BME280;24578;48.264;11.436;2023-08-08T14:39:38;96033.06;;;26.69;31.62
13604;BME280;24578;48.264;11.436;2023-08-08T14:45:59;96037.25;;;25.94;33.51
13604;BME280;24578;48.264;11.436;2023-08-08T14:52:20;96034.56;;;25.62;33.94
13604;BME280;24578;48.264;11.436;2023-08-08T14:58:42;96043.88;;;25.19;34.22
13604;BME280;24578;48.264;11.436;2023-08-08T15:05:03;96046.59;;;24.39;35.77
13604;BME280;24578;48.264;11.436;2023-08-08T15:11:25;96053.91;;;24.30;35.61
13604;BME280;24578;48.264;11.436;2023-08-08T15:17:46;96042.53;;;24.43;34.70
13604;BME280;24578;48.264;11.436;2023-08-08T15:24:07;96048.28;;;23.78;35.20
13604;BME280;24578;48.264;11.436;2023-08-08T15:30:29;96053.13;;;23.61;37.14
13604;BME280;24578;48.264;11.436;2023-08-08T15:36:51;96053.59;;;23.29;37.60
13604;BME280;24578;48.264;11.436;2023-08-08T15:43:12;96048.84;;;23.60;38.31
13604;BME280;24578;48.264;11.436;2023-08-08T15:49:34;96060.06;;;23.26;37.96
13604;BME280;24578;48.264;11.436;2023-08-08T15:55:56;96062.72;;;22.98;38.92
13604;BME280;24578;48.264;11.436;2023-08-08T16:02:17;96058.75;;;23.44;37.70
13604;BME280;24578;48.264;11.436;2023-08-08T16:08:38;96054.22;;;22.96;37.96
13604;BME280;24578;48.264;11.436;2023-08-08T16:14:59;96059.56;;;22.53;39.89
13604;BME280;24578;48.264;11.436;2023-08-08T16:21:20;96056.97;;;22.16;40.12
13604;BME280;24578;48.264;11.436;2023-08-08T16:27:42;96063.06;;;21.95;40.79
13604;BME280;24578;48.264;11.436;2023-08-08T16:34:03;96063.50;;;21.77;41.22
13604;BME280;24578;48.264;11.436;2023-08-08T16:40:24;96059.66;;;21.79;41.06
13604;BME280;24578;48.264;11.436;2023-08-08T16:46:45;96067.22;;;21.37;41.85
13604;BME280;24578;48.264;11.436;2023-08-08T16:53:07;96070.50;;;21.39;42.41
13604;BME280;24578;48.264;11.436;2023-08-08T16:59:28;96066.34;;;21.15;43.60
13604;BME280;24578;48.264;11.436;2023-08-08T17:05:49;96074.69;;;21.04;44.04
13604;BME280;24578;48.264;11.436;2023-08-08T17:12:10;96078.56;;;20.93;44.82
13604;BME280;24578;48.264;11.436;2023-08-08T17:18:32;96086.19;;;20.64;44.75
13604;BME280;24578;48.264;11.436;2023-08-08T17:24:53;96085.94;;;20.59;44.68
13604;BME280;24578;48.264;11.436;2023-08-08T17:31:14;96092.03;;;20.36;45.05
13604;BME280;24578;48.264;11.436;2023-08-08T17:37:35;96100.22;;;20.18;46.01
13604;BME280;24578;48.264;11.436;2023-08-08T17:43:57;96099.47;;;20.01;47.27
13604;BME280;24578;48.264;11.436;2023-08-08T17:50:18;96106.47;;;19.77;47.87
13604;BME280;24578;48.264;11.436;2023-08-08T17:56:39;96113.78;;;19.59;49.28
13604;BME280;24578;48.264;11.436;2023-08-08T18:03:01;96119.00;;;19.27;50.58
13604;BME280;24578;48.264;11.436;2023-08-08T18:09:22;96114.75;;;19.10;51.54
13604;BME280;24578;48.264;11.436;2023-08-08T18:15:43;96118.53;;;18.82;53.98
13604;BME280;24578;48.264;11.436;2023-08-08T18:22:04;96123.66;;;18.67;55.54
13604;BME280;24578;48.264;11.436;2023-08-08T18:28:26;96120.84;;;18.69;55.14
13604;BME280;24578;48.264;11.436;2023-08-08T18:34:48;96129.03;;;18.58;55.91
13604;BME280;24578;48.264;11.436;2023-08-08T18:41:09;96129.19;;;18.31;58.00
13604;BME280;24578;48.264;11.436;2023-08-08T18:47:31;96133.38;;;18.07;59.00
13604;BME280;24578;48.264;11.436;2023-08-08T18:53:52;96150.31;;;17.78;61.29
13604;BME280;24578;48.264;11.436;2023-08-08T19:00:13;96156.44;;;17.61;63.06
13604;BME280;24578;48.264;11.436;2023-08-08T19:06:34;96164.56;;;17.49;65.87
13604;BME280;24578;48.264;11.436;2023-08-08T19:12:56;96166.31;;;17.41;66.93
13604;BME280;24578;48.264;11.436;2023-08-08T19:19:17;96176.78;;;17.41;68.44
13604;BME280;24578;48.264;11.436;2023-08-08T19:25:42;96176.66;;;17.42;69.35
13604;BME280;24578;48.264;11.436;2023-08-08T19:32:03;96175.78;;;17.33;72.35
13604;BME280;24578;48.264;11.436;2023-08-08T19:38:24;96186.38;;;17.32;72.34
13604;BME280;24578;48.264;11.436;2023-08-08T19:44:46;96190.75;;;17.23;75.29
13604;BME280;24578;48.264;11.436;2023-08-08T19:51:07;96188.13;;;17.23;75.18
13604;BME280;24578;48.264;11.436;2023-08-08T19:57:28;96174.34;;;17.13;74.53
13604;BME280;24578;48.264;11.436;2023-08-08T20:03:49;96173.66;;;17.11;74.88
13604;BME280;24578;48.264;11.436;2023-08-08T20:10:10;96163.78;;;16.96;75.73
13604;BME280;24578;48.264;11.436;2023-08-08T20:16:32;96174.03;;;16.71;77.30
13604;BME280;24578;48.264;11.436;2023-08-08T20:22:53;96179.78;;;16.57;78.72
13604;BME280;24578;48.264;11.436;2023-08-08T20:29:15;96173.34;;;16.33;81.49
13604;BME280;24578;48.264;11.436;2023-08-08T20:35:36;96179.66;;;16.12;84.20
13604;BME280;24578;48.264;11.436;2023-08-08T20:41:59;96184.56;;;15.97;86.75
13604;BME280;24578;48.264;11.436;2023-08-08T20:48:20;96183.81;;;15.77;90.29
13604;BME280;24578;48.264;11.436;2023-08-08T20:54:41;96178.91;;;15.64;92.42
13604;BME280;24578;48.264;11.436;2023-08-08T21:01:03;96182.53;;;15.53;93.84
13604;BME280;24578;48.264;11.436;2023-08-08T21:07:24;96174.47;;;15.37;97.11
13604;BME280;24578;48.264;11.436;2023-08-08T21:13:47;96180.31;;;15.21;100.00
13604;BME280;24578;48.264;11.436;2023-08-08T21:20:12;96180.59;;;15.08;100.00
13604;BME280;24578;48.264;11.436;2023-08-08T21:26:34;96177.06;;;14.99;100.00
13604;BME280;24578;48.264;11.436;2023-08-08T21:32:55;96180.88;;;14.95;100.00
13604;BME280;24578;48.264;11.436;2023-08-08T21:39:16;96176.50;;;15.05;100.00
13604;BME280;24578;48.264;11.436;2023-08-08T21:45:37;96172.34;;;15.13;100.00
13604;BME280;24578;48.264;11.436;2023-08-08T21:51:59;96166.34;;;15.12;100.00
13604;BME280;24578;48.264;11.436;2023-08-08T21:58:21;96160.28;;;15.12;100.00
13604;BME280;24578;48.264;11.436;2023-08-08T22:04:42;96163.91;;;15.01;100.00
13604;BME280;24578;48.264;11.436;2023-08-08T22:11:04;96161.59;;;14.78;100.00
13604;BME280;24578;48.264;11.436;2023-08-08T22:17:25;96150.59;;;14.55;100.00
13604;BME280;24578;48.264;11.436;2023-08-08T22:23:46;96156.22;;;14.40;100.00
13604;BME280;24578;48.264;11.436;2023-08-08T22:30:08;96149.50;;;14.28;100.00
13604;BME280;24578;48.264;11.436;2023-08-08T22:36:29;96141.16;;;14.14;100.00
13604;BME280;24578;48.264;11.436;2023-08-08T22:42:50;96151.13;;;14.09;100.00
13604;BME280;24578;48.264;11.436;2023-08-08T22:49:12;96146.06;;;14.08;100.00
13604;BME280;24578;48.264;11.436;2023-08-08T22:55:33;96151.81;;;14.11;100.00
13604;BME280;24578;48.264;11.436;2023-08-08T23:01:54;96137.00;;;14.12;100.00
13604;BME280;24578;48.264;11.436;2023-08-08T23:08:24;96145.38;;;14.06;100.00
13604;BME280;24578;48.264;11.436;2023-08-08T23:14:46;96140.28;;;13.94;100.00
13604;BME280;24578;48.264;11.436;2023-08-08T23:21:07;96137.09;;;13.81;100.00
13604;BME280;24578;48.264;11.436;2023-08-08T23:27:28;96140.25;;;13.75;100.00
13604;BME280;24578;48.264;11.436;2023-08-08T23:33:49;96142.97;;;13.73;100.00
13604;BME280;24578;48.264;11.436;2023-08-08T23:40:11;96137.66;;;13.75;100.00
13604;BME280;24578;48.264;11.436;2023-08-08T23:46:33;96131.31;;;13.67;100.00
13604;BME280;24578;48.264;11.436;2023-08-08T23:52:54;96130.63;;;13.65;100.00
13604;BME280;24578;48.264;11.436;2023-08-08T23:59:16;96131.31;;;13.67;100.00
